sensor_id;sensor_type;location;lat;lon;timestamp;P1;durP1;ratioP1;P2;durP2;ratioP2
23179;SDS011;11758;45.756;11.432;2023-08-01T00:01:41;2.35;;;2.13;;
23179;SDS011;11758;45.756;11.432;2023-08-01T00:04:07;2.42;;;2.33;;
23179;SDS011;11758;45.756;11.432;2023-08-01T00:06:34;4.28;;;2.47;;
23179;SDS011;11758;45.756;11.432;2023-08-01T00:09:00;3.15;;;2.53;;
23179;SDS011;11758;45.756;11.432;2023-08-01T00:11:26;2.53;;;2.33;;
23179;SDS011;11758;45.756;11.432;2023-08-01T00:13:52;2.72;;;2.20;;
23179;SDS011;11758;45.756;11.432;2023-08-01T00:16:18;2.33;;;2.33;;
23179;SDS011;11758;45.756;11.432;2023-08-01T00:18:44;2.67;;;2.58;;
23179;SDS011;11758;45.756;11.432;2023-08-01T00:21:10;2.60;;;2.50;;
23179;SDS011;11758;45.756;11.432;2023-08-01T00:23:37;2.30;;;2.30;;
23179;SDS011;11758;45.756;11.432;2023-08-01T00:26:03;4.05;;;2.50;;
23179;SDS011;11758;45.756;11.432;2023-08-01T00:28:30;3.03;;;2.40;;
23179;SDS011;11758;45.756;11.432;2023-08-01T00:31:03;3.65;;;2.45;;
23179;SDS011;11758;45.756;11.432;2023-08-01T00:33:30;2.40;;;2.30;;
23179;SDS011;11758;45.756;11.432;2023-08-01T00:35:56;4.72;;;2.20;;
23179;SDS011;11758;45.756;11.432;2023-08-01T00:38:22;3.58;;;2.65;;
23179;SDS011;11758;45.756;11.432;2023-08-01T00:40:48;2.47;;;2.30;;
23179;SDS011;11758;45.756;11.432;2023-08-01T00:43:15;2.80;;;2.55;;
23179;SDS011;11758;45.756;11.432;2023-08-01T00:45:41;2.53;;;2.20;;
23179;SDS011;11758;45.756;11.432;2023-08-01T00:48:08;2.45;;;2.13;;
23179;SDS011;11758;45.756;11.432;2023-08-01T00:50:34;2.08;;;1.98;;
23179;SDS011;11758;45.756;11.432;2023-08-01T00:53:00;4.22;;;2.70;;
23179;SDS011;11758;45.756;11.432;2023-08-01T00:55:27;3.90;;;2.65;;
23179;SDS011;11758;45.756;11.432;2023-08-01T00:57:54;2.35;;;2.00;;
23179;SDS011;11758;45.756;11.432;2023-08-01T01:00:20;2.58;;;2.38;;
23179;SDS011;11758;45.756;11.432;2023-08-01T01:02:46;2.00;;;2.00;;
23179;SDS011;11758;45.756;11.432;2023-08-01T01:05:12;6.05;;;2.33;;
23179;SDS011;11758;45.756;11.432;2023-08-01T01:07:39;2.67;;;2.47;;
23179;SDS011;11758;45.756;11.432;2023-08-01T01:10:05;3.20;;;2.47;;
23179;SDS011;11758;45.756;11.432;2023-08-01T01:12:31;2.30;;;2.20;;
23179;SDS011;11758;45.756;11.432;2023-08-01T01:14:57;2.10;;;2.10;;
23179;SDS011;11758;45.756;11.432;2023-08-01T01:17:23;6.97;;;2.30;;
23179;SDS011;11758;45.756;11.432;2023-08-01T01:19:50;2.78;;;2.22;;
23179;SDS011;11758;45.756;11.432;2023-08-01T01:22:16;2.47;;;2.03;;
23179;SDS011;11758;45.756;11.432;2023-08-01T01:24:42;2.47;;;2.20;;
23179;SDS011;11758;45.756;11.432;2023-08-01T01:27:08;2.50;;;2.40;;
23179;SDS011;11758;45.756;11.432;2023-08-01T01:29:35;2.28;;;2.17;;
23179;SDS011;11758;45.756;11.432;2023-08-01T01:32:01;2.50;;;2.35;;
23179;SDS011;11758;45.756;11.432;2023-08-01T01:34:28;3.70;;;2.20;;
23179;SDS011;11758;45.756;11.432;2023-08-01T01:36:54;4.00;;;2.17;;
23179;SDS011;11758;45.756;11.432;2023-08-01T01:39:21;3.03;;;2.40;;
23179;SDS011;11758;45.756;11.432;2023-08-01T01:41:47;2.10;;;2.00;;
23179;SDS011;11758;45.756;11.432;2023-08-01T01:44:13;2.25;;;2.15;;
23179;SDS011;11758;45.756;11.432;2023-08-01T01:46:39;2.38;;;2.05;;
23179;SDS011;11758;45.756;11.432;2023-08-01T01:49:05;2.20;;;2.17;;
23179;SDS011;11758;45.756;11.432;2023-08-01T01:51:31;2.40;;;2.20;;
23179;SDS011;11758;45.756;11.432;2023-08-01T01:53:58;3.13;;;2.00;;
23179;SDS011;11758;45.756;11.432;2023-08-01T01:56:24;2.20;;;2.10;;
23179;SDS011;11758;45.756;11.432;2023-08-01T01:58:50;2.15;;;1.98;;
23179;SDS011;11758;45.756;11.432;2023-08-01T02:01:16;2.33;;;2.22;;
23179;SDS011;11758;45.756;11.432;2023-08-01T02:03:42;4.47;;;2.40;;
23179;SDS011;11758;45.756;11.432;2023-08-01T02:06:08;5.50;;;2.22;;
23179;SDS011;11758;45.756;11.432;2023-08-01T02:08:34;2.05;;;2.05;;
23179;SDS011;11758;45.756;11.432;2023-08-01T02:11:01;2.72;;;2.50;;
23179;SDS011;11758;45.756;11.432;2023-08-01T02:13:27;2.85;;;2.50;;
23179;SDS011;11758;45.756;11.432;2023-08-01T02:15:54;3.05;;;2.20;;
23179;SDS011;11758;45.756;11.432;2023-08-01T02:18:20;3.53;;;2.17;;
23179;SDS011;11758;45.756;11.432;2023-08-01T02:20:46;2.20;;;2.10;;
23179;SDS011;11758;45.756;11.432;2023-08-01T02:23:12;2.38;;;2.28;;
23179;SDS011;11758;45.756;11.432;2023-08-01T02:25:39;3.45;;;2.20;;
23179;SDS011;11758;45.756;11.432;2023-08-01T02:28:05;2.70;;;2.50;;
23179;SDS011;11758;45.756;11.432;2023-08-01T02:30:32;2.20;;;2.10;;
23179;SDS011;11758;45.756;11.432;2023-08-01T02:32:58;2.25;;;2.17;;
23179;SDS011;11758;45.756;11.432;2023-08-01T02:35:24;4.20;;;2.40;;
23179;SDS011;11758;45.756;11.432;2023-08-01T02:37:53;2.47;;;2.30;;
23179;SDS011;11758;45.756;11.432;2023-08-01T02:40:19;2.47;;;2.30;;
23179;SDS011;11758;45.756;11.432;2023-08-01T02:42:45;3.10;;;2.50;;
23179;SDS011;11758;45.756;11.432;2023-08-01T02:45:12;2.40;;;2.30;;
23179;SDS011;11758;45.756;11.432;2023-08-01T02:47:38;2.35;;;2.10;;
23179;SDS011;11758;45.756;11.432;2023-08-01T02:50:04;2.35;;;2.08;;
23179;SDS011;11758;45.756;11.432;2023-08-01T02:52:31;4.20;;;2.25;;
23179;SDS011;11758;45.756;11.432;2023-08-01T02:54:57;2.15;;;2.05;;
23179;SDS011;11758;45.756;11.432;2023-08-01T02:57:23;2.30;;;2.20;;
23179;SDS011;11758;45.756;11.432;2023-08-01T02:59:50;2.20;;;2.10;;
23179;SDS011;11758;45.756;11.432;2023-08-01T03:02:16;3.72;;;2.70;;
23179;SDS011;11758;45.756;11.432;2023-08-01T03:04:42;2.58;;;2.30;;
23179;SDS011;11758;45.756;11.432;2023-08-01T03:07:08;4.25;;;2.70;;
23179;SDS011;11758;45.756;11.432;2023-08-01T03:09:35;2.42;;;2.33;;
23179;SDS011;11758;45.756;11.432;2023-08-01T03:12:01;2.70;;;2.60;;
23179;SDS011;11758;45.756;11.432;2023-08-01T03:14:27;2.58;;;2.40;;
23179;SDS011;11758;45.756;11.432;2023-08-01T03:16:53;4.97;;;2.28;;
23179;SDS011;11758;45.756;11.432;2023-08-01T03:19:19;2.42;;;2.22;;
23179;SDS011;11758;45.756;11.432;2023-08-01T03:21:45;2.58;;;2.40;;
23179;SDS011;11758;45.756;11.432;2023-08-01T03:24:11;2.20;;;2.10;;
23179;SDS011;11758;45.756;11.432;2023-08-01T03:26:38;2.60;;;2.35;;
23179;SDS011;11758;45.756;11.432;2023-08-01T03:29:04;3.00;;;2.90;;
23179;SDS011;11758;45.756;11.432;2023-08-01T03:31:30;2.40;;;2.30;;
23179;SDS011;11758;45.756;11.432;2023-08-01T03:33:56;2.53;;;2.42;;
23179;SDS011;11758;45.756;11.432;2023-08-01T03:36:25;3.05;;;2.58;;
23179;SDS011;11758;45.756;11.432;2023-08-01T03:38:52;2.30;;;2.30;;
23179;SDS011;11758;45.756;11.432;2023-08-01T03:41:18;2.40;;;2.30;;
23179;SDS011;11758;45.756;11.432;2023-08-01T03:43:44;2.47;;;2.25;;
23179;SDS011;11758;45.756;11.432;2023-08-01T03:46:10;3.08;;;2.58;;
23179;SDS011;11758;45.756;11.432;2023-08-01T03:48:36;2.97;;;2.55;;
23179;SDS011;11758;45.756;11.432;2023-08-01T03:51:03;2.47;;;2.10;;
23179;SDS011;11758;45.756;11.432;2023-08-01T03:53:29;2.25;;;2.15;;
23179;SDS011;11758;45.756;11.432;2023-08-01T03:55:55;2.50;;;2.30;;
23179;SDS011;11758;45.756;11.432;2023-08-01T03:58:21;2.83;;;2.63;;
23179;SDS011;11758;45.756;11.432;2023-08-01T04:00:47;2.50;;;2.35;;
23179;SDS011;11758;45.756;11.432;2023-08-01T04:03:14;3.03;;;2.70;;
23179;SDS011;11758;45.756;11.432;2023-08-01T04:05:40;2.72;;;2.53;;
23179;SDS011;11758;45.756;11.432;2023-08-01T04:08:06;2.80;;;2.65;;
23179;SDS011;11758;45.756;11.432;2023-08-01T04:10:33;2.60;;;2.50;;
23179;SDS011;11758;45.756;11.432;2023-08-01T04:13:00;3.08;;;2.65;;
23179;SDS011;11758;45.756;11.432;2023-08-01T04:15:26;3.03;;;2.70;;
23179;SDS011;11758;45.756;11.432;2023-08-01T04:17:52;2.95;;;2.85;;
23179;SDS011;11758;45.756;11.432;2023-08-01T04:20:18;3.15;;;2.88;;
23179;SDS011;11758;45.756;11.432;2023-08-01T04:22:44;3.33;;;3.00;;
23179;SDS011;11758;45.756;11.432;2023-08-01T04:25:10;3.35;;;3.15;;
23179;SDS011;11758;45.756;11.432;2023-08-01T04:27:37;3.05;;;2.85;;
23179;SDS011;11758;45.756;11.432;2023-08-01T04:30:03;2.90;;;2.70;;
23179;SDS011;11758;45.756;11.432;2023-08-01T04:32:29;3.00;;;2.80;;
23179;SDS011;11758;45.756;11.432;2023-08-01T04:34:55;3.05;;;2.95;;
23179;SDS011;11758;45.756;11.432;2023-08-01T04:37:21;2.90;;;2.80;;
23179;SDS011;11758;45.756;11.432;2023-08-01T04:39:49;2.88;;;2.78;;
23179;SDS011;11758;45.756;11.432;2023-08-01T04:42:17;2.67;;;2.60;;
23179;SDS011;11758;45.756;11.432;2023-08-01T04:44:43;2.67;;;2.53;;
23179;SDS011;11758;45.756;11.432;2023-08-01T04:47:09;3.05;;;2.85;;
23179;SDS011;11758;45.756;11.432;2023-08-01T04:49:35;3.20;;;2.90;;
23179;SDS011;11758;45.756;11.432;2023-08-01T04:52:01;3.08;;;2.92;;
23179;SDS011;11758;45.756;11.432;2023-08-01T04:54:27;2.60;;;2.58;;
23179;SDS011;11758;45.756;11.432;2023-08-01T04:56:54;3.28;;;2.70;;
23179;SDS011;11758;45.756;11.432;2023-08-01T04:59:20;2.50;;;2.33;;
23179;SDS011;11758;45.756;11.432;2023-08-01T05:01:46;2.70;;;2.50;;
23179;SDS011;11758;45.756;11.432;2023-08-01T05:04:12;2.30;;;2.30;;
23179;SDS011;11758;45.756;11.432;2023-08-01T05:06:38;2.80;;;2.58;;
23179;SDS011;11758;45.756;11.432;2023-08-01T05:09:05;2.90;;;2.70;;
23179;SDS011;11758;45.756;11.432;2023-08-01T05:11:32;2.50;;;2.40;;
23179;SDS011;11758;45.756;11.432;2023-08-01T05:13:58;3.20;;;2.97;;
23179;SDS011;11758;45.756;11.432;2023-08-01T05:16:24;2.50;;;2.30;;
23179;SDS011;11758;45.756;11.432;2023-08-01T05:18:50;2.47;;;2.38;;
23179;SDS011;11758;45.756;11.432;2023-08-01T05:21:16;2.50;;;2.40;;
23179;SDS011;11758;45.756;11.432;2023-08-01T05:23:42;2.95;;;2.67;;
23179;SDS011;11758;45.756;11.432;2023-08-01T05:26:08;2.58;;;2.38;;
23179;SDS011;11758;45.756;11.432;2023-08-01T05:28:35;2.78;;;2.60;;
23179;SDS011;11758;45.756;11.432;2023-08-01T05:31:01;2.95;;;2.83;;
23179;SDS011;11758;45.756;11.432;2023-08-01T05:33:27;3.03;;;2.72;;
23179;SDS011;11758;45.756;11.432;2023-08-01T05:35:53;2.70;;;2.58;;
23179;SDS011;11758;45.756;11.432;2023-08-01T05:38:19;3.05;;;2.85;;
23179;SDS011;11758;45.756;11.432;2023-08-01T05:40:45;4.18;;;3.40;;
23179;SDS011;11758;45.756;11.432;2023-08-01T05:43:11;3.72;;;2.95;;
23179;SDS011;11758;45.756;11.432;2023-08-01T05:45:38;3.92;;;3.17;;
23179;SDS011;11758;45.756;11.432;2023-08-01T05:48:04;6.00;;;3.10;;
23179;SDS011;11758;45.756;11.432;2023-08-01T05:50:30;4.90;;;3.75;;
23179;SDS011;11758;45.756;11.432;2023-08-01T05:52:56;4.10;;;3.70;;
23179;SDS011;11758;45.756;11.432;2023-08-01T05:55:22;4.10;;;3.70;;
23179;SDS011;11758;45.756;11.432;2023-08-01T05:57:48;4.57;;;3.55;;
23179;SDS011;11758;45.756;11.432;2023-08-01T06:00:17;4.00;;;3.20;;
23179;SDS011;11758;45.756;11.432;2023-08-01T06:02:46;4.00;;;2.63;;
23179;SDS011;11758;45.756;11.432;2023-08-01T06:05:12;2.63;;;2.45;;
23179;SDS011;11758;45.756;11.432;2023-08-01T06:07:38;3.42;;;2.80;;
23179;SDS011;11758;45.756;11.432;2023-08-01T06:10:05;4.68;;;3.45;;
23179;SDS011;11758;45.756;11.432;2023-08-01T06:12:31;7.45;;;4.38;;
23179;SDS011;11758;45.756;11.432;2023-08-01T06:14:57;4.43;;;4.07;;
23179;SDS011;11758;45.756;11.432;2023-08-01T06:17:23;4.95;;;3.75;;
23179;SDS011;11758;45.756;11.432;2023-08-01T06:19:49;5.80;;;4.30;;
23179;SDS011;11758;45.756;11.432;2023-08-01T06:22:16;4.85;;;3.50;;
23179;SDS011;11758;45.756;11.432;2023-08-01T06:24:42;4.85;;;2.88;;
23179;SDS011;11758;45.756;11.432;2023-08-01T06:27:08;4.45;;;3.03;;
23179;SDS011;11758;45.756;11.432;2023-08-01T06:29:35;3.22;;;2.80;;
23179;SDS011;11758;45.756;11.432;2023-08-01T06:32:02;6.28;;;2.95;;
23179;SDS011;11758;45.756;11.432;2023-08-01T06:34:28;2.78;;;2.60;;
23179;SDS011;11758;45.756;11.432;2023-08-01T06:36:54;3.40;;;3.17;;
23179;SDS011;11758;45.756;11.432;2023-08-01T06:39:20;5.88;;;2.97;;
23179;SDS011;11758;45.756;11.432;2023-08-01T06:41:46;3.15;;;2.92;;
23179;SDS011;11758;45.756;11.432;2023-08-01T06:44:13;3.42;;;3.15;;
23179;SDS011;11758;45.756;11.432;2023-08-01T06:46:39;3.03;;;2.80;;
23179;SDS011;11758;45.756;11.432;2023-08-01T06:49:05;2.65;;;2.50;;
23179;SDS011;11758;45.756;11.432;2023-08-01T06:51:31;2.67;;;2.58;;
23179;SDS011;11758;45.756;11.432;2023-08-01T06:53:57;3.30;;;3.10;;
23179;SDS011;11758;45.756;11.432;2023-08-01T06:56:23;2.88;;;2.70;;
23179;SDS011;11758;45.756;11.432;2023-08-01T06:58:49;3.25;;;3.05;;
23179;SDS011;11758;45.756;11.432;2023-08-01T07:01:15;3.15;;;2.95;;
23179;SDS011;11758;45.756;11.432;2023-08-01T07:03:42;2.90;;;2.80;;
23179;SDS011;11758;45.756;11.432;2023-08-01T07:06:08;3.25;;;3.10;;
23179;SDS011;11758;45.756;11.432;2023-08-01T07:08:35;2.63;;;2.55;;
23179;SDS011;11758;45.756;11.432;2023-08-01T07:11:01;2.85;;;2.67;;
23179;SDS011;11758;45.756;11.432;2023-08-01T07:13:27;3.35;;;2.85;;
23179;SDS011;11758;45.756;11.432;2023-08-01T07:15:54;2.85;;;2.65;;
23179;SDS011;11758;45.756;11.432;2023-08-01T07:18:20;3.03;;;2.83;;
23179;SDS011;11758;45.756;11.432;2023-08-01T07:20:46;2.65;;;2.50;;
23179;SDS011;11758;45.756;11.432;2023-08-01T07:23:12;2.60;;;2.50;;
23179;SDS011;11758;45.756;11.432;2023-08-01T07:25:38;2.60;;;2.50;;
23179;SDS011;11758;45.756;11.432;2023-08-01T07:28:04;3.05;;;2.95;;
23179;SDS011;11758;45.756;11.432;2023-08-01T07:30:31;2.75;;;2.58;;
23179;SDS011;11758;45.756;11.432;2023-08-01T07:32:57;2.80;;;2.70;;
23179;SDS011;11758;45.756;11.432;2023-08-01T07:35:23;3.25;;;2.97;;
23179;SDS011;11758;45.756;11.432;2023-08-01T07:37:49;4.07;;;2.90;;
23179;SDS011;11758;45.756;11.432;2023-08-01T07:40:15;3.05;;;2.92;;
23179;SDS011;11758;45.756;11.432;2023-08-01T07:42:41;3.30;;;3.10;;
23179;SDS011;11758;45.756;11.432;2023-08-01T07:45:08;2.60;;;2.50;;
23179;SDS011;11758;45.756;11.432;2023-08-01T07:47:34;3.08;;;2.92;;
23179;SDS011;11758;45.756;11.432;2023-08-01T07:50:00;3.03;;;2.88;;
23179;SDS011;11758;45.756;11.432;2023-08-01T07:52:26;3.22;;;3.00;;
23179;SDS011;11758;45.756;11.432;2023-08-01T07:54:52;3.78;;;3.45;;
23179;SDS011;11758;45.756;11.432;2023-08-01T07:57:20;3.30;;;3.13;;
23179;SDS011;11758;45.756;11.432;2023-08-01T07:59:46;3.15;;;3.00;;
23179;SDS011;11758;45.756;11.432;2023-08-01T08:02:13;3.67;;;3.35;;
23179;SDS011;11758;45.756;11.432;2023-08-01T08:04:39;3.65;;;3.45;;
23179;SDS011;11758;45.756;11.432;2023-08-01T08:07:05;3.92;;;3.63;;
23179;SDS011;11758;45.756;11.432;2023-08-01T08:09:31;3.72;;;3.53;;
23179;SDS011;11758;45.756;11.432;2023-08-01T08:11:57;4.00;;;3.65;;
23179;SDS011;11758;45.756;11.432;2023-08-01T08:14:23;3.28;;;3.05;;
23179;SDS011;11758;45.756;11.432;2023-08-01T08:16:50;5.53;;;3.30;;
23179;SDS011;11758;45.756;11.432;2023-08-01T08:19:16;3.08;;;2.90;;
23179;SDS011;11758;45.756;11.432;2023-08-01T08:21:42;2.72;;;2.67;;
23179;SDS011;11758;45.756;11.432;2023-08-01T08:24:08;3.70;;;3.38;;
23179;SDS011;11758;45.756;11.432;2023-08-01T08:26:34;3.22;;;2.78;;
23179;SDS011;11758;45.756;11.432;2023-08-01T08:29:03;3.28;;;3.10;;
23179;SDS011;11758;45.756;11.432;2023-08-01T08:31:32;4.10;;;3.75;;
23179;SDS011;11758;45.756;11.432;2023-08-01T08:33:58;4.22;;;3.60;;
23179;SDS011;11758;45.756;11.432;2023-08-01T08:36:24;3.40;;;3.05;;
23179;SDS011;11758;45.756;11.432;2023-08-01T08:38:50;3.80;;;3.58;;
23179;SDS011;11758;45.756;11.432;2023-08-01T08:41:20;3.55;;;3.35;;
23179;SDS011;11758;45.756;11.432;2023-08-01T08:43:47;3.20;;;3.00;;
23179;SDS011;11758;45.756;11.432;2023-08-01T08:46:14;3.72;;;2.97;;
23179;SDS011;11758;45.756;11.432;2023-08-01T08:48:41;5.22;;;3.30;;
23179;SDS011;11758;45.756;11.432;2023-08-01T08:51:09;3.60;;;3.40;;
23179;SDS011;11758;45.756;11.432;2023-08-01T08:53:35;3.97;;;3.75;;
23179;SDS011;11758;45.756;11.432;2023-08-01T08:56:02;4.53;;;3.53;;
23179;SDS011;11758;45.756;11.432;2023-08-01T08:58:31;4.10;;;3.80;;
23179;SDS011;11758;45.756;11.432;2023-08-01T09:01:00;3.63;;;3.33;;
23179;SDS011;11758;45.756;11.432;2023-08-01T09:03:27;4.55;;;3.80;;
23179;SDS011;11758;45.756;11.432;2023-08-01T09:05:54;3.53;;;3.33;;
23179;SDS011;11758;45.756;11.432;2023-08-01T09:08:25;5.07;;;3.53;;
23179;SDS011;11758;45.756;11.432;2023-08-01T09:10:53;2.90;;;2.80;;
23179;SDS011;11758;45.756;11.432;2023-08-01T09:13:19;3.22;;;3.08;;
23179;SDS011;11758;45.756;11.432;2023-08-01T09:15:45;2.97;;;2.88;;
23179;SDS011;11758;45.756;11.432;2023-08-01T09:18:12;2.88;;;2.78;;
23179;SDS011;11758;45.756;11.432;2023-08-01T09:20:48;4.50;;;4.20;;
23179;SDS011;11758;45.756;11.432;2023-08-01T09:23:14;5.20;;;4.18;;
23179;SDS011;11758;45.756;11.432;2023-08-01T09:25:41;6.88;;;3.85;;
23179;SDS011;11758;45.756;11.432;2023-08-01T09:28:21;4.05;;;3.67;;
23179;SDS011;11758;45.756;11.432;2023-08-01T09:30:48;4.82;;;4.50;;
23179;SDS011;11758;45.756;11.432;2023-08-01T09:33:15;4.75;;;4.35;;
23179;SDS011;11758;45.756;11.432;2023-08-01T09:35:41;4.63;;;4.25;;
23179;SDS011;11758;45.756;11.432;2023-08-01T09:38:10;8.13;;;5.18;;
23179;SDS011;11758;45.756;11.432;2023-08-01T09:40:36;5.10;;;4.32;;
23179;SDS011;11758;45.756;11.432;2023-08-01T09:43:02;5.03;;;4.60;;
23179;SDS011;11758;45.756;11.432;2023-08-01T09:45:29;5.40;;;4.93;;
23179;SDS011;11758;45.756;11.432;2023-08-01T09:47:55;5.20;;;4.28;;
23179;SDS011;11758;45.756;11.432;2023-08-01T09:50:22;4.57;;;4.28;;
23179;SDS011;11758;45.756;11.432;2023-08-01T09:52:48;4.35;;;4.05;;
23179;SDS011;11758;45.756;11.432;2023-08-01T09:55:33;4.40;;;3.90;;
23179;SDS011;11758;45.756;11.432;2023-08-01T09:58:00;3.88;;;3.60;;
23179;SDS011;11758;45.756;11.432;2023-08-01T10:00:26;3.70;;;3.50;;
23179;SDS011;11758;45.756;11.432;2023-08-01T10:02:53;4.38;;;4.03;;
23179;SDS011;11758;45.756;11.432;2023-08-01T10:05:20;3.17;;;3.08;;
23179;SDS011;11758;45.756;11.432;2023-08-01T10:07:47;3.35;;;2.95;;
23179;SDS011;11758;45.756;11.432;2023-08-01T10:10:14;3.75;;;3.45;;
23179;SDS011;11758;45.756;11.432;2023-08-01T10:12:43;3.58;;;3.38;;
23179;SDS011;11758;45.756;11.432;2023-08-01T10:15:09;3.67;;;3.38;;
23179;SDS011;11758;45.756;11.432;2023-08-01T10:17:35;2.88;;;2.78;;
23179;SDS011;11758;45.756;11.432;2023-08-01T10:20:02;3.28;;;2.97;;
23179;SDS011;11758;45.756;11.432;2023-08-01T10:22:28;3.10;;;2.92;;
23179;SDS011;11758;45.756;11.432;2023-08-01T10:24:55;3.78;;;3.13;;
23179;SDS011;11758;45.756;11.432;2023-08-01T10:27:21;3.30;;;3.00;;
23179;SDS011;11758;45.756;11.432;2023-08-01T10:29:57;2.85;;;2.75;;
23179;SDS011;11758;45.756;11.432;2023-08-01T10:32:29;2.80;;;2.60;;
23179;SDS011;11758;45.756;11.432;2023-08-01T10:34:56;2.95;;;2.85;;
23179;SDS011;11758;45.756;11.432;2023-08-01T10:37:23;3.03;;;2.83;;
23179;SDS011;11758;45.756;11.432;2023-08-01T10:39:58;3.05;;;2.80;;
23179;SDS011;11758;45.756;11.432;2023-08-01T10:42:26;3.22;;;2.92;;
23179;SDS011;11758;45.756;11.432;2023-08-01T10:44:52;3.17;;;3.08;;
23179;SDS011;11758;45.756;11.432;2023-08-01T10:47:24;4.53;;;3.22;;
23179;SDS011;11758;45.756;11.432;2023-08-01T10:49:52;4.05;;;3.45;;
23179;SDS011;11758;45.756;11.432;2023-08-01T10:52:22;3.60;;;3.40;;
23179;SDS011;11758;45.756;11.432;2023-08-01T10:54:58;4.07;;;3.78;;
23179;SDS011;11758;45.756;11.432;2023-08-01T10:57:26;3.60;;;3.22;;
23179;SDS011;11758;45.756;11.432;2023-08-01T10:59:53;3.85;;;3.47;;
23179;SDS011;11758;45.756;11.432;2023-08-01T11:02:23;6.28;;;3.85;;
23179;SDS011;11758;45.756;11.432;2023-08-01T11:07:23;4.00;;;3.80;;
23179;SDS011;11758;45.756;11.432;2023-08-01T11:09:49;4.88;;;4.10;;
23179;SDS011;11758;45.756;11.432;2023-08-01T11:12:26;3.65;;;3.55;;
23179;SDS011;11758;45.756;11.432;2023-08-01T11:14:53;7.72;;;5.82;;
23179;SDS011;11758;45.756;11.432;2023-08-01T11:17:24;5.25;;;4.78;;
23179;SDS011;11758;45.756;11.432;2023-08-01T11:19:51;3.53;;;3.40;;
23179;SDS011;11758;45.756;11.432;2023-08-01T11:22:17;3.35;;;3.05;;
23179;SDS011;11758;45.756;11.432;2023-08-01T11:24:49;4.57;;;3.10;;
23179;SDS011;11758;45.756;11.432;2023-08-01T11:27:15;3.10;;;2.85;;
23179;SDS011;11758;45.756;11.432;2023-08-01T11:29:42;3.67;;;3.30;;
23179;SDS011;11758;45.756;11.432;2023-08-01T11:32:08;3.83;;;3.53;;
23179;SDS011;11758;45.756;11.432;2023-08-01T11:34:40;3.40;;;3.28;;
23179;SDS011;11758;45.756;11.432;2023-08-01T11:37:10;4.50;;;3.83;;
23179;SDS011;11758;45.756;11.432;2023-08-01T11:39:36;3.88;;;3.40;;
23179;SDS011;11758;45.756;11.432;2023-08-01T11:42:02;3.92;;;3.63;;
23179;SDS011;11758;45.756;11.432;2023-08-01T11:44:29;3.85;;;3.65;;
23179;SDS011;11758;45.756;11.432;2023-08-01T11:46:55;3.47;;;3.25;;
23179;SDS011;11758;45.756;11.432;2023-08-01T11:49:22;3.88;;;3.50;;
23179;SDS011;11758;45.756;11.432;2023-08-01T11:51:48;4.13;;;3.70;;
23179;SDS011;11758;45.756;11.432;2023-08-01T11:54:17;6.13;;;3.70;;
23179;SDS011;11758;45.756;11.432;2023-08-01T11:56:43;4.60;;;3.47;;
23179;SDS011;11758;45.756;11.432;2023-08-01T11:59:13;3.80;;;3.40;;
23179;SDS011;11758;45.756;11.432;2023-08-01T12:01:44;3.30;;;3.20;;
23179;SDS011;11758;45.756;11.432;2023-08-01T12:04:10;3.53;;;3.30;;
23179;SDS011;11758;45.756;11.432;2023-08-01T12:06:37;7.65;;;3.80;;
23179;SDS011;11758;45.756;11.432;2023-08-01T12:09:12;3.67;;;3.47;;
23179;SDS011;11758;45.756;11.432;2023-08-01T12:11:39;4.35;;;3.50;;
23179;SDS011;11758;45.756;11.432;2023-08-01T12:14:12;5.43;;;3.88;;
23179;SDS011;11758;45.756;11.432;2023-08-01T12:16:42;3.92;;;3.70;;
23179;SDS011;11758;45.756;11.432;2023-08-01T12:19:10;4.93;;;3.97;;
23179;SDS011;11758;45.756;11.432;2023-08-01T12:21:36;3.78;;;3.47;;
23179;SDS011;11758;45.756;11.432;2023-08-01T12:24:03;4.88;;;3.10;;
23179;SDS011;11758;45.756;11.432;2023-08-01T12:26:29;4.10;;;3.80;;
23179;SDS011;11758;45.756;11.432;2023-08-01T12:28:55;4.25;;;3.60;;
23179;SDS011;11758;45.756;11.432;2023-08-01T12:31:21;3.97;;;3.67;;
23179;SDS011;11758;45.756;11.432;2023-08-01T12:33:48;3.53;;;3.33;;
23179;SDS011;11758;45.756;11.432;2023-08-01T12:36:14;3.40;;;3.20;;
23179;SDS011;11758;45.756;11.432;2023-08-01T12:38:41;3.80;;;3.60;;
23179;SDS011;11758;45.756;11.432;2023-08-01T12:41:07;4.00;;;3.70;;
23179;SDS011;11758;45.756;11.432;2023-08-01T12:43:33;4.53;;;3.65;;
23179;SDS011;11758;45.756;11.432;2023-08-01T12:45:59;3.90;;;3.55;;
23179;SDS011;11758;45.756;11.432;2023-08-01T12:48:26;4.03;;;3.70;;
23179;SDS011;11758;45.756;11.432;2023-08-01T12:50:52;4.00;;;3.80;;
23179;SDS011;11758;45.756;11.432;2023-08-01T12:53:19;3.95;;;3.65;;
23179;SDS011;11758;45.756;11.432;2023-08-01T12:55:45;4.30;;;4.00;;
23179;SDS011;11758;45.756;11.432;2023-08-01T12:58:12;5.25;;;4.03;;
23179;SDS011;11758;45.756;11.432;2023-08-01T13:00:42;5.10;;;3.83;;
23179;SDS011;11758;45.756;11.432;2023-08-01T13:03:08;4.30;;;4.00;;
23179;SDS011;11758;45.756;11.432;2023-08-01T13:05:35;4.78;;;4.43;;
23179;SDS011;11758;45.756;11.432;2023-08-01T13:08:01;4.53;;;4.10;;
23179;SDS011;11758;45.756;11.432;2023-08-01T13:10:31;4.18;;;3.78;;
23179;SDS011;11758;45.756;11.432;2023-08-01T13:12:57;3.97;;;3.70;;
23179;SDS011;11758;45.756;11.432;2023-08-01T13:15:24;4.03;;;3.90;;
23179;SDS011;11758;45.756;11.432;2023-08-01T13:17:50;4.03;;;3.70;;
23179;SDS011;11758;45.756;11.432;2023-08-01T13:20:16;4.50;;;4.10;;
23179;SDS011;11758;45.756;11.432;2023-08-01T13:22:43;4.30;;;4.00;;
23179;SDS011;11758;45.756;11.432;2023-08-01T13:25:09;4.72;;;4.25;;
23179;SDS011;11758;45.756;11.432;2023-08-01T13:27:35;4.10;;;3.80;;
23179;SDS011;11758;45.756;11.432;2023-08-01T13:30:01;4.10;;;3.90;;
23179;SDS011;11758;45.756;11.432;2023-08-01T13:32:28;4.30;;;4.10;;
23179;SDS011;11758;45.756;11.432;2023-08-01T13:34:54;4.50;;;4.18;;
23179;SDS011;11758;45.756;11.432;2023-08-01T13:37:20;4.50;;;4.20;;
23179;SDS011;11758;45.756;11.432;2023-08-01T13:39:46;4.97;;;4.57;;
23179;SDS011;11758;45.756;11.432;2023-08-01T13:42:12;5.07;;;4.57;;
23179;SDS011;11758;45.756;11.432;2023-08-01T13:44:39;5.10;;;4.80;;
23179;SDS011;11758;45.756;11.432;2023-08-01T13:47:05;4.63;;;4.32;;
23179;SDS011;11758;45.756;11.432;2023-08-01T13:49:31;8.73;;;4.63;;
23179;SDS011;11758;45.756;11.432;2023-08-01T13:51:58;4.95;;;4.60;;
23179;SDS011;11758;45.756;11.432;2023-08-01T13:54:25;6.85;;;4.68;;
23179;SDS011;11758;45.756;11.432;2023-08-01T13:56:51;5.10;;;4.63;;
23179;SDS011;11758;45.756;11.432;2023-08-01T13:59:18;4.35;;;4.05;;
23179;SDS011;11758;45.756;11.432;2023-08-01T14:01:47;4.15;;;3.95;;
23179;SDS011;11758;45.756;11.432;2023-08-01T14:04:14;4.90;;;4.55;;
23179;SDS011;11758;45.756;11.432;2023-08-01T14:06:40;4.78;;;4.38;;
23179;SDS011;11758;45.756;11.432;2023-08-01T14:09:07;5.05;;;4.65;;
23179;SDS011;11758;45.756;11.432;2023-08-01T14:11:34;4.85;;;4.35;;
23179;SDS011;11758;45.756;11.432;2023-08-01T14:14:00;5.15;;;4.50;;
23179;SDS011;11758;45.756;11.432;2023-08-01T14:16:26;7.65;;;4.63;;
23179;SDS011;11758;45.756;11.432;2023-08-01T14:18:53;4.60;;;4.25;;
23179;SDS011;11758;45.756;11.432;2023-08-01T14:21:19;4.38;;;4.07;;
23179;SDS011;11758;45.756;11.432;2023-08-01T14:23:45;3.53;;;3.35;;
23179;SDS011;11758;45.756;11.432;2023-08-01T14:26:11;6.70;;;4.45;;
23179;SDS011;11758;45.756;11.432;2023-08-01T14:28:37;5.47;;;4.68;;
23179;SDS011;11758;45.756;11.432;2023-08-01T14:31:03;4.40;;;4.20;;
23179;SDS011;11758;45.756;11.432;2023-08-01T14:33:30;5.10;;;4.60;;